Time;durP1;ratioP1;P1;durP2;ratioP2;P2;SDS_P1;SDS_P2;PMS_P1;PMS_P2;Temp;Humidity;BMP_temperature;BMP_pressure;BME280_temperature;BME280_humidity;BME280_pressure;Samples;Min_cycle;Max_cycle;Signal;HPM_P1;HPM_P2
2022/08/26 00:00:06;;;;;;;14.50;10.02;;;21.20;52.70;;;;;;5127293;27;20032;-66
2022/08/26 00:02:32;;;;;;;14.60;10.43;;;21.00;94.50;;;;;;5094588;28;20485;-66
2022/08/26 00:04:58;;;;;;;19.75;10.75;;;21.10;99.90;;;;;;5094620;28;20101;-66
2022/08/26 00:07:23;;;;;;;14.63;10.88;;;21.00;1.00;;;;;;5094530;28;20054;-66
2022/08/26 00:09:49;;;;;;;14.50;10.88;;;20.90;1.00;;;;;;5094512;28;20123;-66
2022/08/26 00:12:15;;;;;;;17.15;11.10;;;21.00;99.90;;;;;;5092677;28;20079;-66
2022/08/26 00:14:41;;;;;;;17.15;12.13;;;20.80;99.90;;;;;;5094320;28;20479;-66
2022/08/26 00:17:06;;;;;;;14.85;11.20;;;21.00;1.00;;;;;;5126934;27;20050;-66
2022/08/26 00:19:32;;;;;;;15.70;11.55;;;21.00;1.00;;;;;;5094360;28;20050;-66
2022/08/26 00:21:58;;;;;;;18.35;11.40;;;20.90;99.90;;;;;;5094232;28;20387;-66
2022/08/26 00:24:24;;;;;;;17.13;11.57;;;20.90;99.90;;;;;;5109604;28;20127;-66
2022/08/26 00:26:50;;;;;;;18.90;13.15;;;20.70;99.90;;;;;;5093964;28;20119;-66
2022/08/26 00:29:16;;;;;;;19.27;13.00;;;20.80;1.00;;;;;;5093805;28;20076;-66
2022/08/26 00:31:42;;;;;;;20.98;13.65;;;20.70;99.90;;;;;;5092951;28;20048;-66
2022/08/26 00:34:08;;;;;;;21.70;13.25;;;20.70;99.90;;;;;;5093973;28;20109;-66
2022/08/26 00:36:34;;;;;;;19.25;13.43;;;21.10;99.90;;;;;;5092775;28;20119;-66
2022/08/26 00:39:00;;;;;;;19.35;12.10;;;20.60;99.90;;;;;;5092825;28;20166;-66
2022/08/26 00:41:26;;;;;;;21.80;13.48;;;20.80;99.90;;;;;;5093590;28;20027;-66
2022/08/26 00:43:51;;;;;;;19.55;13.90;;;20.60;99.90;;;;;;5093964;28;20509;-66
2022/08/26 00:46:22;;;;;;;19.80;13.52;;;20.60;99.90;;;;;;5092587;28;20047;-66
2022/08/26 00:48:51;;;;;;;;;;;20.80;99.90;;;;;;5094314;28;20047;-66
2022/08/26 00:51:21;;;;;;;19.67;12.82;;;20.90;1.00;;;;;;5093237;28;20382;-66
2022/08/26 00:53:57;;;;;;;25.70;14.38;;;20.60;99.90;;;;;;5093377;28;20044;-66
2022/08/26 00:56:37;;;;;;;20.75;13.65;;;20.50;99.90;;;;;;5093716;28;20386;-67
2022/08/26 00:59:07;;;;;;;23.98;14.90;;;20.50;98.90;;;;;;5093622;28;20064;-66
2022/08/26 01:01:33;;;;;;;20.10;13.93;;;20.60;99.90;;;;;;5092156;28;20055;-66
2022/08/26 01:03:59;;;;;;;18.45;13.30;;;20.20;99.90;;;;;;5093625;28;20036;-66
2022/08/26 01:06:26;;;;;;;20.13;13.05;;;20.40;99.90;;;;;;5093203;28;20036;-66
2022/08/26 01:08:52;;;;;;;21.85;13.27;;;20.20;99.90;;;;;;5093408;28;20380;-66
2022/08/26 01:11:19;;;;;;;20.45;13.55;;;20.20;1.00;;;;;;5091947;28;20051;-66
2022/08/26 01:13:46;;;;;;;19.10;13.68;;;20.40;1.00;;;;;;5093171;28;20074;-66
2022/08/26 01:16:13;;;;;;;23.33;13.65;;;20.30;1.00;;;;;;5093375;28;20072;-66
2022/08/26 01:18:42;;;;;;;18.50;13.50;;;20.20;4.90;;;;;;5092017;28;20453;-66
2022/08/26 01:21:31;;;;;;;19.60;13.73;;;20.40;10.90;;;;;;5093407;28;20497;-66
2022/08/26 01:23:58;;;;;;;19.48;12.70;;;20.30;64.10;;;;;;5093319;28;20051;-66
2022/08/26 01:26:29;;;;;;;19.67;12.85;;;20.30;54.20;;;;;;5092926;28;20070;-66
2022/08/26 01:28:57;;;;;;;25.30;13.32;;;20.30;57.30;;;;;;5092931;28;20072;-66
2022/08/26 01:31:28;;;;;;;17.80;11.85;;;20.20;75.60;;;;;;5092945;28;20079;-66
2022/08/26 01:34:09;;;;;;;22.58;13.20;;;20.00;74.90;;;;;;5093139;28;20036;-66
2022/08/26 01:36:37;;;;;;;21.33;13.23;;;20.10;85.10;;;;;;5093257;28;20032;-66
2022/08/26 01:39:04;;;;;;;24.88;13.48;;;20.30;92.80;;;;;;5091892;28;20036;-66
2022/08/26 01:41:31;;;;;;;17.92;13.27;;;19.90;95.10;;;;;;5092767;28;20043;-66
2022/08/26 01:43:58;;;;;;;18.13;12.55;;;20.20;94.70;;;;;;5093077;28;20109;-66
2022/08/26 01:46:26;;;;;;;17.20;11.40;;;20.00;99.10;;;;;;5091505;28;20073;-66
2022/08/26 01:48:54;;;;;;;22.17;12.38;;;20.00;90.40;;;;;;5093101;28;20058;-67
2022/08/26 01:51:21;;;;;;;17.02;11.45;;;20.10;99.80;;;;;;5093018;28;20032;-66
2022/08/26 01:53:48;;;;;;;21.55;12.07;;;20.20;99.90;;;;;;5091427;28;20048;-67
2022/08/26 01:56:15;;;;;;;16.23;11.70;;;20.00;99.90;;;;;;5092656;28;20111;-66
2022/08/26 01:58:47;;;;;;;15.02;11.13;;;20.10;98.60;;;;;;5092988;28;20115;-66
2022/08/26 02:01:13;;;;;;;18.20;11.52;;;20.00;99.90;;;;;;5092892;28;20044;-66
2022/08/26 02:03:55;;;;;;;17.05;10.93;;;20.30;99.90;;;;;;5094864;28;20040;-66
2022/08/26 02:06:20;;;;;;;15.00;10.82;;;20.40;99.90;;;;;;5096937;28;20082;-66
2022/08/26 02:08:51;;;;;;;20.95;10.88;;;20.40;99.90;;;;;;5096799;28;20051;-66
2022/08/26 02:11:17;;;;;;;17.15;11.00;;;20.10;98.50;;;;;;5096891;28;20542;-66
2022/08/26 02:13:47;;;;;;;16.80;11.32;;;20.40;99.90;;;;;;5095256;28;20040;-66
2022/08/26 02:16:17;;;;;;;21.38;10.77;;;20.10;99.90;;;;;;5096782;28;20040;-66
2022/08/26 02:18:44;;;;;;;16.58;10.63;;;20.50;99.90;;;;;;5096546;28;20123;-66
2022/08/26 02:21:11;;;;;;;22.58;10.90;;;20.40;99.90;;;;;;5096715;28;20035;-66
2022/08/26 02:23:37;;;;;;;15.27;10.50;;;20.20;99.90;;;;;;5096341;28;20063;-66
2022/08/26 02:26:08;;;;;;;18.00;10.07;;;20.20;99.90;;;;;;5096684;28;20044;-67
2022/08/26 02:28:50;;;;;;;17.40;9.35;;;20.10;99.90;;;;;;5096578;28;20040;-66
2022/08/26 02:31:15;;;;;;;16.67;10.07;;;20.40;99.90;;;;;;5096501;28;20464;-66
2022/08/26 02:33:41;;;;;;;15.20;10.18;;;20.20;99.90;;;;;;5096198;28;20044;-66
2022/08/26 02:36:07;;;;;;;15.32;9.75;;;20.30;99.90;;;;;;5096296;28;20040;-66
2022/08/26 02:38:34;;;;;;;17.65;10.80;;;20.40;99.90;;;;;;5096342;28;20032;-67
2022/08/26 02:41:00;;;;;;;14.77;9.60;;;20.10;99.90;;;;;;5096380;28;20043;-66
2022/08/26 02:43:26;;;;;;;17.42;10.35;;;20.20;99.90;;;;;;5096334;28;20032;-66
2022/08/26 02:45:51;;;;;;;16.90;11.15;;;20.40;99.90;;;;;;5096223;28;20403;-66
2022/08/26 02:48:20;;;;;;;17.10;10.05;;;20.20;99.90;;;;;;5094980;28;20479;-66
2022/08/26 02:50:47;;;;;;;16.15;10.85;;;20.10;99.90;;;;;;5094689;28;20040;-66
2022/08/26 02:53:13;;;;;;;16.80;10.32;;;20.30;99.90;;;;;;5096004;28;20395;-66
2022/08/26 02:55:39;;;;;;;16.70;9.60;;;20.40;99.90;;;;;;5094442;28;20070;-66
2022/08/26 02:58:05;;;;;;;19.67;10.25;;;20.50;99.90;;;;;;5096037;28;20043;-67
2022/08/26 03:00:31;;;;;;;15.43;9.52;;;20.40;99.90;;;;;;5095843;28;20649;-66
2022/08/26 03:02:58;;;;;;;16.30;10.80;;;20.50;99.90;;;;;;5095943;28;20093;-66
2022/08/26 03:05:24;;;;;;;19.75;11.23;;;20.10;99.90;;;;;;5095711;28;20043;-66
2022/08/26 03:07:51;;;;;;;17.13;10.07;;;20.10;99.90;;;;;;5095795;28;20086;-66
2022/08/26 03:10:18;;;;;;;24.65;11.10;;;20.20;99.90;;;;;;5095440;28;20044;-66
2022/08/26 03:12:44;;;;;;;17.88;10.55;;;20.40;99.90;;;;;;5095344;28;20052;-66
2022/08/26 03:15:11;;;;;;;21.33;11.10;;;20.20;99.90;;;;;;5094608;28;20071;-66
2022/08/26 03:17:37;;;;;;;18.33;11.30;;;20.50;99.90;;;;;;5095601;28;20044;-68
2022/08/26 03:20:08;;;;;;;19.63;11.40;;;20.20;99.90;;;;;;5094032;28;20136;-66
2022/08/26 03:22:35;;;;;;;17.85;11.05;;;20.40;99.90;;;;;;5095294;28;20051;-66
2022/08/26 03:25:02;;;;;;;20.90;11.30;;;20.60;99.90;;;;;;5095218;28;20052;-66
2022/08/26 03:27:28;;;;;;;18.00;11.05;;;20.50;99.90;;;;;;5095348;28;20036;-66
2022/08/26 03:32:38;;;;;;;16.30;10.77;;;20.30;99.90;;;;;;5095295;28;20139;-66
2022/08/26 03:35:04;;;;;;;21.77;11.68;;;20.20;99.90;;;;;;5094909;28;20122;-66
2022/08/26 03:37:29;;;;;;;16.40;9.98;;;20.20;99.90;;;;;;5093612;28;20050;-66
2022/08/26 03:39:55;;;;;;;15.48;9.38;;;20.20;99.90;;;;;;5093620;28;20105;-66
2022/08/26 03:42:21;;;;;;;14.85;10.38;;;20.20;99.90;;;;;;5094727;28;20467;-61
2022/08/26 03:44:47;;;;;;;16.27;9.98;;;20.20;99.90;;;;;;5095153;28;20040;-62
2022/08/26 03:47:13;;;;;;;16.58;10.38;;;20.20;99.90;;;;;;5095095;28;20066;-62
2022/08/26 03:49:39;;;;;;;16.25;10.43;;;20.60;99.90;;;;;;5095106;28;20471;-61
2022/08/26 03:52:05;;;;;;;19.60;9.80;;;20.60;99.90;;;;;;5093820;28;20040;-61
2022/08/26 03:54:31;;;;;;;17.55;9.75;;;20.60;99.90;;;;;;5076409;28;20047;-61
2022/08/26 03:56:57;;;;;;;14.25;10.25;;;20.60;99.90;;;;;;5094571;28;20044;-61
2022/08/26 03:59:23;;;;;;;16.90;10.75;;;20.30;99.90;;;;;;5094905;28;20046;-61
2022/08/26 04:01:49;;;;;;;17.35;9.80;;;20.60;99.90;;;;;;5093570;28;20081;-61
2022/08/26 04:04:15;;;;;;;15.70;10.05;;;20.60;99.90;;;;;;5093180;28;20036;-62
2022/08/26 04:06:42;;;;;;;18.05;9.75;;;20.20;99.90;;;;;;5093255;28;20066;-62
2022/08/26 04:09:12;;;;;;;14.60;8.90;;;20.60;99.90;;;;;;5094752;28;20490;-62
2022/08/26 04:11:38;;;;;;;14.20;9.13;;;20.50;99.90;;;;;;5094643;28;20425;-62
2022/08/26 04:14:17;;;;;;;16.67;8.52;;;20.60;99.90;;;;;;5092869;28;20648;-61
2022/08/26 04:16:44;;;;;;;12.82;8.57;;;20.70;99.90;;;;;;5093066;28;20492;-62
2022/08/26 04:19:11;;;;;;;15.32;9.13;;;20.60;99.90;;;;;;5094437;28;20044;-62
2022/08/26 04:21:37;;;;;;;12.77;8.50;;;20.20;99.90;;;;;;5094094;28;20104;-62
2022/08/26 04:24:04;;;;;;;11.88;7.47;;;20.50;99.90;;;;;;5092830;28;20063;-62
2022/08/26 04:26:36;;;;;;;12.35;8.57;;;20.30;99.90;;;;;;5094250;28;20063;-62
2022/08/26 04:29:16;;;;;;;14.13;7.97;;;20.30;99.90;;;;;;5094319;28;20036;-61
2022/08/26 04:31:43;;;;;;;;;;;20.60;99.90;;;;;;5094678;28;20032;-63
2022/08/26 04:34:09;;;;;;;11.77;6.95;;;20.80;99.90;;;;;;5093013;28;19927;-62
2022/08/26 04:36:35;;;;;;;12.38;7.47;;;20.30;99.90;;;;;;5092879;28;20051;-62
2022/08/26 04:39:02;;;;;;;15.80;8.05;;;20.60;99.90;;;;;;5092715;28;20074;-61
2022/08/26 04:41:30;;;;;;;11.10;7.75;;;20.30;99.90;;;;;;5094121;28;20058;-61
2022/08/26 04:43:56;;;;;;;12.77;7.45;;;20.60;99.90;;;;;;5093846;28;20048;-62
2022/08/26 04:46:23;;;;;;;16.00;8.25;;;20.30;99.90;;;;;;5092717;28;20051;-62
2022/08/26 04:48:51;;;;;;;15.38;7.68;;;20.60;99.90;;;;;;5093608;28;20050;-62
2022/08/26 04:51:19;;;;;;;11.98;6.57;;;20.40;99.90;;;;;;5093892;28;20550;-62
2022/08/26 04:53:45;;;;;;;10.02;7.07;;;20.60;99.90;;;;;;5092599;28;20479;-62
2022/08/26 04:56:11;;;;;;;15.35;8.23;;;20.50;99.10;;;;;;5092189;28;20044;-62
2022/08/26 04:58:37;;;;;;;11.40;7.32;;;20.50;99.40;;;;;;5094081;28;20076;-61
2022/08/26 05:01:03;;;;;;;12.55;6.85;;;20.30;98.10;;;;;;5092221;28;20071;-61
2022/08/26 05:03:30;;;;;;;12.57;6.95;;;20.30;98.40;;;;;;5093703;28;20040;-61
2022/08/26 05:05:55;;;;;;;11.20;7.18;;;20.60;98.30;;;;;;5093445;28;20070;-61
2022/08/26 05:08:21;;;;;;;14.38;7.28;;;20.50;98.40;;;;;;5093364;28;20039;-62
2022/08/26 05:10:50;;;;;;;14.55;7.38;;;20.60;98.00;;;;;;5092296;28;20040;-61
2022/08/26 05:13:18;;;;;;;11.70;7.70;;;20.40;97.90;;;;;;5093290;28;20084;-62
2022/08/26 05:15:45;;;;;;;11.00;6.53;;;20.70;97.50;;;;;;5093214;28;20051;-62
2022/08/26 05:18:12;;;;;;;10.02;6.38;;;20.50;97.50;;;;;;5093223;28;20043;-61
2022/08/26 05:20:43;;;;;;;13.23;6.38;;;20.70;97.00;;;;;;5092229;28;20494;-62
2022/08/26 05:23:09;;;;;;;11.07;6.47;;;20.50;96.50;;;;;;5093109;28;20044;-62
2022/08/26 05:25:44;;;;;;;10.38;6.50;;;20.40;97.30;;;;;;5093269;28;20035;-63
2022/08/26 05:28:11;;;;;;;13.02;7.35;;;20.70;97.90;;;;;;5093095;28;20079;-62
2022/08/26 05:30:38;;;;;;;13.02;7.97;;;20.40;96.30;;;;;;5093119;28;20058;-62
2022/08/26 05:33:05;;;;;;;14.45;7.72;;;20.60;96.90;;;;;;5093456;28;20043;-61
2022/08/26 05:35:32;;;;;;;9.27;6.15;;;20.40;96.90;;;;;;5093237;28;20036;-62
2022/08/26 05:38:04;;;;;;;9.75;6.65;;;20.70;96.80;;;;;;5092457;28;20044;-62
2022/08/26 05:40:35;;;;;;;13.82;8.00;;;20.60;96.80;;;;;;5092828;28;20032;-62
2022/08/26 05:43:00;;;;;;;13.85;8.23;;;20.40;97.60;;;;;;5092889;28;20055;-62
2022/08/26 05:45:26;;;;;;;12.57;7.65;;;20.30;96.90;;;;;;5093152;28;20051;-62
2022/08/26 05:47:52;;;;;;;12.95;8.45;;;20.70;96.40;;;;;;5093153;28;20135;-62
2022/08/26 05:50:22;;;;;;;14.82;8.90;;;20.60;95.80;;;;;;5093125;28;20040;-62
2022/08/26 05:52:51;;;;;;;20.83;8.90;;;20.30;96.20;;;;;;5093215;28;20364;-62
2022/08/26 05:55:18;;;;;;;11.07;7.90;;;20.60;96.80;;;;;;5092991;28;20048;-62
2022/08/26 05:57:44;;;;;;;11.95;7.30;;;20.60;96.70;;;;;;5125577;28;20067;-63
2022/08/26 06:00:11;;;;;;;13.80;7.65;;;20.70;97.00;;;;;;5091418;28;20142;-62
2022/08/26 06:02:38;;;;;;;12.27;7.22;;;20.40;96.40;;;;;;5093066;28;20040;-62
2022/08/26 06:05:04;;;;;;;12.60;7.18;;;20.50;96.90;;;;;;5092791;28;20124;-62
2022/08/26 06:10:14;;;;;;;11.20;6.68;;;20.40;96.20;;;;;;5092922;28;20453;-62
2022/08/26 06:12:40;;;;;;;8.88;6.25;;;20.80;97.80;;;;;;5091161;28;20052;-62
2022/08/26 06:15:06;;;;;;;10.25;6.22;;;20.50;97.10;;;;;;5091365;28;20044;-62
2022/08/26 06:17:32;;;;;;;10.45;6.22;;;20.50;96.70;;;;;;5093069;28;20078;-62
2022/08/26 06:19:57;;;;;;;11.50;6.25;;;20.80;96.50;;;;;;5092966;28;20059;-62
2022/08/26 06:27:52;;;;;;;10.48;6.28;;;20.80;96.60;;;;;;5092680;28;20131;-62
2022/08/26 06:30:18;;;;;;;9.10;5.85;;;20.50;96.30;;;;;;5092587;28;20115;-62
2022/08/26 06:32:44;;;;;;;11.10;5.95;;;20.50;96.30;;;;;;5092739;28;20043;-63
2022/08/26 06:35:10;;;;;;;10.73;5.63;;;20.80;96.40;;;;;;5091126;28;20448;-62
2022/08/26 06:37:37;;;;;;;9.68;5.88;;;21.00;96.10;;;;;;5092202;28;20040;-62
2022/08/26 06:40:04;;;;;;;10.45;5.72;;;20.80;96.20;;;;;;5092290;28;20115;-62
2022/08/26 06:42:29;;;;;;;12.15;6.30;;;20.60;96.70;;;;;;5092556;28;20505;-62
2022/08/26 06:44:55;;;;;;;8.25;5.60;;;21.10;96.60;;;;;;5092355;28;20048;-62
2022/08/26 06:47:21;;;;;;;13.40;6.55;;;20.70;97.20;;;;;;5092526;28;20372;-62
2022/08/26 06:49:47;;;;;;;10.27;5.75;;;21.00;97.30;;;;;;5091430;28;20044;-62
2022/08/26 06:52:12;;;;;;;8.77;5.70;;;20.90;96.80;;;;;;5094698;28;20067;-63
2022/08/26 06:54:41;;;;;;;13.45;6.22;;;20.90;96.70;;;;;;5096173;28;20048;-62
2022/08/26 06:57:08;;;;;;;9.15;5.50;;;21.30;96.20;;;;;;5096142;28;20040;-62
2022/08/26 06:59:34;;;;;;;11.60;5.70;;;21.00;96.30;;;;;;5095801;28;20558;-63
2022/08/26 07:01:59;;;;;;;11.40;4.70;;;21.30;96.40;;;;;;5095827;28;20178;-62
2022/08/26 07:04:26;;;;;;;6.85;4.03;;;21.00;95.50;;;;;;5077495;28;20033;-62
2022/08/26 07:06:52;;;;;;;9.88;5.13;;;21.00;94.20;;;;;;5095882;28;20048;-62
2022/08/26 07:09:19;;;;;;;6.93;4.60;;;20.90;92.90;;;;;;5095522;28;20032;-62
2022/08/26 07:11:45;;;;;;;8.65;5.13;;;21.40;91.70;;;;;;5095588;28;20042;-63
2022/08/26 07:14:11;;;;;;;8.82;4.82;;;21.00;90.10;;;;;;5095332;28;20131;-62
2022/08/26 07:16:39;;;;;;;7.00;4.97;;;21.30;84.20;;;;;;5094574;28;20487;-62
2022/08/26 07:19:05;;;;;;;11.27;4.93;;;21.10;74.50;;;;;;5095706;28;20065;-62
2022/08/26 07:21:31;;;;;;;8.93;4.68;;;21.50;73.40;;;;;;5095642;28;20506;-62
2022/08/26 07:23:57;;;;;;;6.53;3.97;;;21.50;73.10;;;;;;5095425;28;20090;-62
2022/08/26 07:26:28;;;;;;;7.15;4.28;;;21.10;67.70;;;;;;5095357;28;20040;-62
2022/08/26 07:28:56;;;;;;;10.00;4.43;;;21.50;66.70;;;;;;5095453;28;20068;-62
2022/08/26 07:31:24;;;;;;;10.13;5.30;;;21.60;65.20;;;;;;5095427;28;20040;-62
2022/08/26 07:33:50;;;;;;;6.40;4.25;;;21.70;55.20;;;;;;5095222;28;20483;-62
2022/08/26 07:36:19;;;;;;;6.20;4.13;;;21.50;38.30;;;;;;5094975;28;20044;-62
2022/08/26 07:38:47;;;;;;;5.65;4.03;;;21.60;31.30;;;;;;5095027;28;20098;-62
2022/08/26 07:41:14;;;;;;;9.38;3.92;;;21.70;22.30;;;;;;5093755;28;20054;-62
2022/08/26 07:43:40;;;;;;;9.68;3.92;;;21.70;11.30;;;;;;5094000;28;20036;-63
2022/08/26 07:46:06;;;;;;;9.50;4.18;;;21.70;11.10;;;;;;5093615;28;20657;-62
2022/08/26 07:48:33;;;;;;;13.52;4.10;;;21.80;1.30;;;;;;5095113;28;20036;-62
2022/08/26 07:50:59;;;;;;;8.60;3.60;;;21.80;1.00;;;;;;5094777;28;20040;-62
2022/08/26 07:53:25;;;;;;;6.95;3.70;;;21.80;1.00;;;;;;5094982;28;20028;-62
2022/08/26 07:55:51;;;;;;;5.40;2.97;;;22.00;1.00;;;;;;5093424;28;20043;-62
2022/08/26 07:58:16;;;;;;;4.78;2.95;;;21.90;1.00;;;;;;5094536;28;20127;-62
2022/08/26 08:00:42;;;;;;;6.88;3.20;;;21.80;1.00;;;;;;5094498;28;20121;-63
2022/08/26 08:03:08;;;;;;;5.57;3.80;;;22.20;1.00;;;;;;5094901;28;20036;-63
2022/08/26 08:05:35;;;;;;;4.53;3.25;;;22.00;1.00;;;;;;5094897;28;20545;-63
2022/08/26 08:08:05;;;;;;;4.70;3.10;;;22.10;1.00;;;;;;5093182;28;20098;-63
2022/08/26 08:10:32;;;;;;;5.93;3.33;;;22.20;1.00;;;;;;5094524;28;20040;-63
2022/08/26 08:12:58;;;;;;;5.35;3.25;;;22.30;1.00;;;;;;5094505;28;20326;-63
2022/08/26 08:15:27;;;;;;;6.45;3.20;;;22.00;1.00;;;;;;5094583;28;20457;-63
2022/08/26 08:17:54;;;;;;;7.32;3.50;;;22.40;1.00;;;;;;5093377;28;20563;-63
2022/08/26 08:20:20;;;;;;;7.68;3.67;;;22.30;1.00;;;;;;5094531;28;20101;-63
2022/08/26 08:22:47;;;;;;;5.47;3.45;;;22.00;1.00;;;;;;5092962;28;20050;-67
2022/08/26 08:25:13;;;;;;;7.32;3.95;;;21.90;1.00;;;;;;5094169;28;20076;-68
2022/08/26 08:27:41;;;;;;;7.57;3.05;;;22.30;1.00;;;;;;5075910;28;20062;-67
2022/08/26 08:30:08;;;;;;;9.13;3.42;;;22.20;1.00;;;;;;5094283;28;20050;-68
2022/08/26 08:32:37;;;;;;;4.25;2.58;;;;;;;;;;5094248;28;20047;-68
2022/08/26 08:35:03;;;;;;;6.00;2.90;;;;;;;;;;5094078;28;20055;-68
2022/08/26 08:37:28;;;;;;;5.60;2.88;;;22.40;1.00;;;;;;5094109;28;20036;-68
2022/08/26 08:39:54;;;;;;;6.53;3.00;;;22.60;1.00;;;;;;5094134;28;20028;-68
2022/08/26 08:42:23;;;;;;;4.78;2.85;;;22.80;99.90;;;;;;5093684;28;20036;-67
2022/08/26 08:44:51;;;;;;;4.85;2.97;;;22.70;99.90;;;;;;5094026;28;20043;-68
2022/08/26 08:47:35;;;;;;;4.82;2.63;;;22.70;99.90;;;;;;5093969;28;20445;-67
2022/08/26 08:50:24;;;;;;;6.03;2.80;;;22.70;99.90;;;;;;5093547;28;20504;-68
2022/08/26 08:53:13;;;;;;;5.72;2.38;;;22.70;99.90;;;;;;5093862;28;20079;-67
2022/08/26 08:56:03;;;;;;;2.25;1.75;;;22.90;99.90;;;;;;5093509;28;20495;-66
2022/08/26 08:58:48;;;;;;;;;;;23.10;99.90;;;;;;5093883;28;20039;-67
2022/08/26 09:01:39;;;;;;;5.88;2.42;;;23.00;1.00;;;;;;5092216;28;19923;-67
2022/08/26 09:04:56;;;;;;;3.00;1.70;;;23.00;99.90;;;;;;5093630;28;20036;-66
2022/08/26 09:07:43;;;;;;;4.47;1.55;;;22.90;1.00;;;;;;5067569;28;20162;-66
2022/08/26 09:10:31;;;;;;;2.83;1.65;;;22.70;39.90;;;;;;5093517;28;20047;-66
2022/08/26 09:12:58;;;;;;;3.17;1.67;;;22.50;1.00;;;;;;5092498;28;20111;-66
2022/08/26 09:15:39;;;;;;;4.10;1.33;;;22.40;99.90;;;;;;5093473;28;20365;-66
2022/08/26 09:18:17;;;;;;;1.92;1.15;;;22.40;99.90;;;;;;5091988;28;20101;-66
2022/08/26 09:21:04;;;;;;;2.58;1.10;;;22.30;99.90;;;;;;5093378;28;20050;-65
2022/08/26 09:23:34;;;;;;;3.38;1.30;;;22.30;99.90;;;;;;5093416;28;20394;-66
2022/08/26 09:26:13;;;;;;;2.47;1.10;;;22.20;99.90;;;;;;5091947;28;20548;-66
2022/08/26 09:28:43;;;;;;;3.72;1.27;;;22.20;99.90;;;;;;5093294;28;20048;-66
2022/08/26 09:31:14;;;;;;;5.45;1.00;;;22.20;99.90;;;;;;5093129;28;20501;-67
2022/08/26 09:33:40;;;;;;;;;;;22.20;99.90;;;;;;5091991;28;20065;-67
2022/08/26 09:36:13;;;;;;;1.83;0.90;;;22.20;99.90;;;;;;5092956;28;19990;-67
2022/08/26 09:38:40;;;;;;;2.35;0.90;;;22.30;99.90;;;;;;5091719;28;20076;-67
2022/08/26 09:41:20;;;;;;;4.18;0.90;;;22.20;99.90;;;;;;5093032;28;20036;-68
2022/08/26 09:44:11;;;;;;;1.07;0.80;;;22.10;99.90;;;;;;5091784;28;20121;-67
2022/08/26 09:46:38;;;;;;;;;;;22.00;99.90;;;;;;5093287;28;20293;-68
2022/08/26 09:49:33;;;;;;;1.27;0.70;;;21.90;99.90;;;;;;5092998;28;19939;-68
2022/08/26 09:52:07;;;;;;;2.20;0.90;;;21.90;99.90;;;;;;5092648;28;20044;-67
2022/08/26 09:54:34;;;;;;;2.65;1.10;;;22.00;99.90;;;;;;5092593;28;20051;-68
2022/08/26 09:57:43;;;;;;;2.03;0.95;;;22.10;99.90;;;;;;5091223;28;20114;-68
2022/08/26 10:00:32;;;;;;;2.05;0.90;;;22.10;99.90;;;;;;5063367;28;20581;-67
2022/08/26 10:03:00;;;;;;;4.60;1.00;;;22.20;99.90;;;;;;5092824;28;20043;-67
2022/08/26 10:05:41;;;;;;;2.80;0.73;;;22.20;99.90;;;;;;5092824;28;20434;-67
2022/08/26 10:08:20;;;;;;;;;;;22.30;98.80;;;;;;5093319;28;20165;-67
2022/08/26 10:10:46;;;;;;;2.75;0.73;;;22.20;81.20;;;;;;5092959;28;20014;-67
2022/08/26 10:13:22;;;;;;;2.40;0.85;;;22.20;79.60;;;;;;5092715;28;20058;-66
2022/08/26 10:16:26;;;;;;;1.48;0.90;;;22.20;89.00;;;;;;5092518;28;20044;-66
2022/08/26 10:19:05;;;;;;;2.50;1.08;;;22.10;78.80;;;;;;5092574;28;20075;-66
2022/08/26 10:21:49;;;;;;;2.10;0.80;;;22.10;99.90;;;;;;5092863;28;20521;-67
2022/08/26 10:24:22;;;;;;;3.65;1.17;;;22.10;99.90;;;;;;5093948;28;20036;-67
2022/08/26 10:27:09;;;;;;;3.35;1.08;;;22.10;99.90;;;;;;5096614;28;20032;-67
2022/08/26 10:29:41;;;;;;;1.55;0.90;;;22.00;99.90;;;;;;5096210;28;20044;-67
2022/08/26 10:32:17;;;;;;;2.05;1.00;;;21.90;99.90;;;;;;5096453;28;20051;-66
2022/08/26 10:34:43;;;;;;;1.90;1.05;;;22.00;99.90;;;;;;5096292;28;20040;-67
2022/08/26 10:37:17;;;;;;;1.48;0.90;;;21.90;99.90;;;;;;5096196;28;20074;-66
2022/08/26 10:39:46;;;;;;;2.85;0.82;;;21.90;99.90;;;;;;5095901;28;20062;-66
2022/08/26 10:42:32;;;;;;;2.60;0.98;;;21.90;99.90;;;;;;5096281;28;20524;-66
2022/08/26 10:45:05;;;;;;;0.55;0.45;;;22.00;99.90;;;;;;5096204;28;20126;-66
2022/08/26 10:47:43;;;;;;;2.50;1.05;;;22.00;97.00;;;;;;5096018;28;20066;-66
2022/08/26 10:50:10;;;;;;;2.63;1.15;;;21.90;46.40;;;;;;5095654;28;20062;-66
2022/08/26 10:53:12;;;;;;;3.75;0.90;;;22.00;99.90;;;;;;5095986;28;20040;-66
2022/08/26 10:55:47;;;;;;;2.08;0.90;;;22.00;13.80;;;;;;5095880;28;20066;-66
2022/08/26 10:58:44;;;;;;;2.05;0.80;;;22.00;1.00;;;;;;5095596;28;20032;-67
2022/08/26 11:01:41;;;;;;;1.20;0.93;;;22.00;1.00;;;;;;5095891;28;20473;-66
2022/08/26 11:04:25;;;;;;;1.55;0.90;;;22.10;99.90;;;;;;5095806;28;20040;-66
2022/08/26 11:07:29;;;;;;;3.53;1.38;;;22.10;99.90;;;;;;5095355;28;20043;-66
2022/08/26 11:09:56;;;;;;;3.70;1.00;;;22.10;99.90;;;;;;5095668;28;20039;-66
2022/08/26 11:12:33;;;;;;;2.28;1.20;;;22.20;1.00;;;;;;5095402;28;20032;-66
2022/08/26 11:15:00;;;;;;;1.52;0.73;;;22.20;1.00;;;;;;5095162;28;20055;-66
2022/08/26 11:17:44;;;;;;;2.50;1.00;;;22.10;99.90;;;;;;5095565;28;20105;-66
2022/08/26 11:20:32;;;;;;;3.58;1.30;;;22.20;99.90;;;;;;5095401;28;20123;-66
2022/08/26 11:23:26;;;;;;;2.63;1.20;;;22.20;1.00;;;;;;5095274;28;20036;-66
2022/08/26 11:25:55;;;;;;;1.58;0.80;;;22.20;99.90;;;;;;5072735;28;20044;-66
2022/08/26 11:28:38;;;;;;;3.22;0.90;;;22.20;99.90;;;;;;5095487;28;20119;-67
2022/08/26 11:31:08;;;;;;;2.63;1.05;;;22.40;99.90;;;;;;5095177;28;20530;-66
2022/08/26 11:33:47;;;;;;;3.45;0.98;;;22.50;99.90;;;;;;5077052;28;20036;-67
2022/08/26 11:36:41;;;;;;;4.57;1.10;;;22.60;99.90;;;;;;5094453;28;20040;-67
2022/08/26 11:39:19;;;;;;;2.78;0.90;;;22.60;99.90;;;;;;5093699;28;20155;-67
2022/08/26 11:41:48;;;;;;;1.35;0.77;;;22.80;99.90;;;;;;5094836;28;20032;-67
2022/08/26 11:44:24;;;;;;;1.98;1.10;;;22.80;99.90;;;;;;5095161;28;20048;-66
2022/08/26 11:47:00;;;;;;;2.30;0.88;;;23.00;99.90;;;;;;5094732;28;20035;-66
2022/08/26 11:49:28;;;;;;;5.80;1.42;;;23.10;16.70;;;;;;5095048;28;20111;-65
2022/08/26 11:52:17;;;;;;;1.98;0.77;;;23.30;99.90;;;;;;5094741;28;20043;-67
2022/08/26 11:55:06;;;;;;;1.65;1.15;;;23.50;1.00;;;;;;5094878;28;20067;-66
2022/08/26 11:57:34;;;;;;;4.30;1.20;;;23.50;1.00;;;;;;5094871;28;20032;-66
2022/08/26 12:00:00;;;;;;;7.28;1.60;;;23.50;99.90;;;;;;5094840;28;20407;-66
2022/08/26 12:02:27;;;;;;;2.63;1.00;;;23.60;1.00;;;;;;5094516;28;20040;-67
2022/08/26 12:04:54;;;;;;;2.80;0.98;;;23.70;99.90;;;;;;5093247;28;20040;-67
2022/08/26 12:07:26;;;;;;;2.58;1.00;;;23.70;99.90;;;;;;5094672;28;20066;-68
2022/08/26 12:09:58;;;;;;;7.07;1.33;;;23.70;99.90;;;;;;5094683;28;20467;-66
2022/08/26 12:12:29;;;;;;;2.95;1.10;;;23.80;99.90;;;;;;5094114;28;20173;-67
2022/08/26 12:15:09;;;;;;;2.80;1.20;;;23.90;99.90;;;;;;5094536;28;20539;-66
2022/08/26 12:17:35;;;;;;;2.83;0.90;;;24.00;99.90;;;;;;5094608;28;20391;-67
2022/08/26 12:20:01;;;;;;;2.75;1.45;;;24.00;99.90;;;;;;5094400;28;20032;-68
2022/08/26 12:22:31;;;;;;;3.13;0.90;;;23.90;1.00;;;;;;5076270;28;20048;-66
2022/08/26 12:24:58;;;;;;;2.72;1.00;;;23.70;63.30;;;;;;5094046;28;20085;-66
2022/08/26 12:27:28;;;;;;;2.10;1.10;;;23.50;1.00;;;;;;5094143;28;20506;-66
2022/08/26 12:30:11;;;;;;;1.90;1.23;;;23.40;3.90;;;;;;5092774;28;20032;-66
2022/08/26 12:32:39;;;;;;;1.85;0.80;;;23.10;1.00;;;;;;5094242;28;20036;-66
2022/08/26 12:35:14;;;;;;;1.88;0.95;;;22.90;99.90;;;;;;5094120;28;20040;-67
2022/08/26 12:37:50;;;;;;;1.42;0.90;;;22.70;99.90;;;;;;5093845;28;20085;-67
2022/08/26 12:40:38;;;;;;;1.63;0.80;;;22.60;99.90;;;;;;5094118;28;20039;-66
2022/08/26 12:43:05;;;;;;;1.98;0.95;;;22.50;99.90;;;;;;5093080;28;20138;-66
2022/08/26 12:45:35;;;;;;;1.85;0.90;;;22.50;1.00;;;;;;5093976;28;20173;-67
2022/08/26 12:48:12;;;;;;;1.48;0.80;;;22.30;1.00;;;;;;5093914;28;20032;-67
2022/08/26 12:50:43;;;;;;;2.42;1.02;;;;;;;;;;5093609;28;20052;-67
2022/08/26 12:53:09;;;;;;;2.13;1.10;;;;;;;;;;5093838;28;20370;-67
2022/08/26 12:55:35;;;;;;;1.80;1.00;;;22.20;1.00;;;;;;5093763;28;20036;-65
2022/08/26 12:58:12;;;;;;;3.22;1.10;;;22.20;99.90;;;;;;5093532;28;20036;-66
2022/08/26 13:00:41;;;;;;;2.00;0.93;;;22.10;99.90;;;;;;5092139;28;20169;-66
2022/08/26 13:03:37;;;;;;;2.72;0.98;;;22.00;99.90;;;;;;5093647;28;20079;-66
2022/08/26 13:06:21;;;;;;;2.25;0.88;;;21.90;1.00;;;;;;5093617;28;20044;-67
2022/08/26 13:08:52;;;;;;;3.72;1.00;;;22.00;70.70;;;;;;5093530;28;20044;-68
2022/08/26 13:11:23;;;;;;;2.78;0.82;;;21.90;99.90;;;;;;5093335;28;20443;-67